Time;durP1;ratioP1;P1;durP2;ratioP2;P2;SDS_P1;SDS_P2;PMS_P1;PMS_P2;Temp;Humidity;BMP_temperature;BMP_pressure;BME280_temperature;BME280_humidity;BME280_pressure;Samples;Min_cycle;Max_cycle;Signal;HPM_P1;HPM_P2
2022/03/03 00:01:50;;;;;;;49.95;21.88;;;;;;;0.52;100.00;101929.84;5226928;28;20043;-75
2022/03/03 00:04:20;;;;;;;47.97;21.73;;;;;;;0.54;100.00;101929.78;5226455;28;20037;-75
2022/03/03 00:06:51;;;;;;;59.00;22.75;;;;;;;0.54;100.00;101921.84;5226994;28;20123;-75
2022/03/03 00:09:21;;;;;;;46.50;21.88;;;;;;;0.51;100.00;101925.50;5226927;28;20017;-75
2022/03/03 00:11:52;;;;;;;53.13;21.42;;;;;;;0.50;100.00;101928.22;5227645;28;20371;-77
2022/03/03 00:14:22;;;;;;;54.42;22.15;;;;;;;0.46;100.00;101926.69;5226806;28;20035;-75
2022/03/03 00:16:53;;;;;;;52.28;22.13;;;;;;;0.39;100.00;101920.81;5227316;28;20413;-74
2022/03/03 00:19:23;;;;;;;50.53;22.08;;;;;;;0.35;100.00;101924.56;5196050;28;20476;-75
2022/03/03 00:21:54;;;;;;;52.08;23.45;;;;;;;0.29;100.00;101924.81;5225958;28;20104;-75
2022/03/03 00:24:25;;;;;;;58.10;23.60;;;;;;;0.25;100.00;101933.81;5226602;28;20095;-75
2022/03/03 00:26:55;;;;;;;53.33;23.25;;;;;;;0.20;100.00;101926.16;5226637;28;20405;-75
2022/03/03 00:29:26;;;;;;;50.47;22.65;;;;;;;0.17;100.00;101934.19;5226891;28;20053;-74
2022/03/03 00:31:56;;;;;;;59.30;25.77;;;;;;;0.12;100.00;101930.94;5226950;28;20055;-74
2022/03/03 00:34:27;;;;;;;54.17;24.85;;;;;;;0.07;100.00;101924.16;5226824;28;20027;-74
2022/03/03 00:36:57;;;;;;;55.72;24.25;;;;;;;0.06;100.00;101925.09;5213259;28;20052;-74
2022/03/03 00:39:28;;;;;;;53.25;23.30;;;;;;;0.02;100.00;101916.47;5226584;28;20021;-75
2022/03/03 00:41:58;;;;;;;55.53;24.23;;;;;;;0.03;100.00;101927.88;5226395;28;20063;-75
2022/03/03 00:44:29;;;;;;;59.08;24.55;;;;;;;-0.01;100.00;101922.72;5225481;28;20029;-75
2022/03/03 00:46:59;;;;;;;51.88;23.52;;;;;;;-0.02;100.00;101923.66;5226611;28;20423;-75
2022/03/03 00:49:30;;;;;;;57.35;23.73;;;;;;;-0.06;100.00;101918.59;5226539;28;20087;-74
2022/03/03 00:52:00;;;;;;;53.83;22.15;;;;;;;-0.09;100.00;101930.16;5226115;28;20075;-75
2022/03/03 00:54:30;;;;;;;55.17;24.58;;;;;;;-0.10;100.00;101928.44;5216343;28;20031;-75
2022/03/03 00:57:01;;;;;;;54.90;23.48;;;;;;;-0.11;100.00;101920.59;5226432;28;20032;-75
2022/03/03 00:59:32;;;;;;;61.90;23.38;;;;;;;-0.13;100.00;101918.03;5226491;28;20103;-74
2022/03/03 01:02:02;;;;;;;51.67;24.20;;;;;;;-0.13;100.00;101917.19;5225927;28;20032;-75
2022/03/03 01:04:33;;;;;;;54.70;23.63;;;;;;;-0.17;100.00;101912.97;5224689;28;20052;-75
2022/03/03 01:07:05;;;;;;;58.35;22.85;;;;;;;-0.24;100.00;101917.69;5213581;28;20032;-75
2022/03/03 01:09:36;;;;;;;55.75;24.10;;;;;;;-0.29;100.00;101917.03;5226347;28;20029;-74
2022/03/03 01:12:07;;;;;;;58.47;24.02;;;;;;;-0.31;100.00;101921.50;5226146;28;20086;-75
2022/03/03 01:14:37;;;;;;;54.08;23.88;;;;;;;-0.36;100.00;101924.34;5226297;28;20032;-75
2022/03/03 01:17:08;;;;;;;54.78;24.33;;;;;;;-0.37;100.00;101922.66;5226298;28;20021;-74
2022/03/03 01:19:38;;;;;;;52.42;21.85;;;;;;;-0.41;100.00;101915.78;5212946;28;20086;-75
2022/03/03 01:22:09;;;;;;;52.38;24.02;;;;;;;-0.43;100.00;101916.81;5226784;28;20057;-75
2022/03/03 01:24:39;;;;;;;52.88;22.40;;;;;;;-0.47;100.00;101910.81;5226278;28;20241;-75
2022/03/03 01:27:10;;;;;;;57.13;24.02;;;;;;;-0.52;100.00;101912.78;5218671;28;20075;-75
2022/03/03 01:29:41;;;;;;;68.65;26.48;;;;;;;-0.57;100.00;101901.59;5226279;28;20024;-75
2022/03/03 01:32:11;;;;;;;54.97;23.13;;;;;;;-0.60;100.00;101909.66;5225368;28;20021;-75
2022/03/03 01:34:42;;;;;;;60.63;23.33;;;;;;;-0.63;100.00;101908.00;5225986;28;20056;-75
2022/03/03 01:37:12;;;;;;;74.07;27.73;;;;;;;-0.66;100.00;101892.31;5225880;28;20036;-75
2022/03/03 01:39:43;;;;;;;58.85;24.25;;;;;;;-0.68;100.00;101898.59;5226889;28;20060;-75
2022/03/03 01:42:16;;;;;;;46.78;22.23;;;;;;;-0.69;100.00;101894.25;5212334;28;20029;-75
2022/03/03 01:44:48;;;;;;;51.95;22.05;;;;;;;-0.69;100.00;101891.63;5225069;28;20025;-75
2022/03/03 01:47:23;;;;;;;57.03;24.05;;;;;;;-0.70;100.00;101890.78;5226135;28;20048;-75
2022/03/03 01:49:56;;;;;;;59.60;23.40;;;;;;;-0.70;100.00;101881.97;5225892;28;20021;-75
2022/03/03 01:52:27;;;;;;;55.92;24.45;;;;;;;-0.71;100.00;101885.53;5225658;28;20049;-75
2022/03/03 01:54:58;;;;;;;59.88;24.15;;;;;;;-0.70;100.00;101884.63;5223890;28;20063;-75
2022/03/03 01:57:29;;;;;;;60.45;24.55;;;;;;;-0.70;100.00;101872.31;5225321;28;20090;-75
2022/03/03 02:00:00;;;;;;;57.00;22.77;;;;;;;-0.70;100.00;101871.44;5225245;28;20428;-75
2022/03/03 02:02:31;;;;;;;52.53;23.58;;;;;;;-0.76;100.00;101872.56;5225610;28;20083;-75
2022/03/03 02:05:01;;;;;;;58.90;23.75;;;;;;;-0.77;100.00;101868.22;5225351;28;20057;-75
2022/03/03 02:07:32;;;;;;;56.53;23.45;;;;;;;-0.79;100.00;101872.72;5225259;28;20104;-75
2022/03/03 02:10:04;;;;;;;64.90;25.45;;;;;;;-0.77;100.00;101872.66;5226769;28;20025;-75
2022/03/03 02:12:35;;;;;;;58.90;23.13;;;;;;;-0.77;100.00;101870.88;5226133;28;20087;-75
2022/03/03 02:15:06;;;;;;;63.00;23.70;;;;;;;-0.73;100.00;101866.31;5225361;28;20017;-75
2022/03/03 02:17:44;;;;;;;55.83;22.70;;;;;;;-0.72;100.00;101868.88;5222697;28;20541;-75
2022/03/03 02:20:29;;;;;;;50.10;21.10;;;;;;;-0.69;100.00;101866.13;5217982;28;20023;-75
2022/03/03 02:22:59;;;;;;;58.80;21.92;;;;;;;-0.67;100.00;101860.78;5224883;28;20021;-75
2022/03/03 02:25:30;;;;;;;55.50;22.77;;;;;;;-0.65;100.00;101856.31;5224311;28;20025;-75
2022/03/03 02:28:00;;;;;;;52.13;21.77;;;;;;;-0.64;100.00;101848.31;5225801;28;20509;-75
2022/03/03 02:30:31;;;;;;;50.22;20.20;;;;;;;-0.62;100.00;101845.59;5226201;28;20025;-75
2022/03/03 02:33:02;;;;;;;54.75;20.88;;;;;;;-0.60;100.00;101844.63;5226816;28;20075;-75
2022/03/03 02:35:32;;;;;;;48.55;20.83;;;;;;;-0.54;100.00;101838.22;5224901;28;20373;-75
2022/03/03 02:38:02;;;;;;;47.95;19.88;;;;;;;-0.51;100.00;101835.41;5225269;28;20587;-75
2022/03/03 02:40:33;;;;;;;46.28;20.40;;;;;;;-0.47;100.00;101839.63;5224943;28;20037;-75
2022/03/03 02:43:04;;;;;;;50.53;21.33;;;;;;;-0.47;100.00;101831.72;5225363;28;20063;-75
2022/03/03 02:45:34;;;;;;;56.38;21.90;;;;;;;-0.45;100.00;101835.16;5225177;28;20511;-75
2022/03/03 02:48:05;;;;;;;56.10;21.38;;;;;;;-0.45;100.00;101837.78;5225407;28;20051;-75
2022/03/03 02:50:35;;;;;;;44.47;20.27;;;;;;;-0.44;100.00;101828.94;5225397;28;20486;-75
2022/03/03 02:53:06;;;;;;;49.60;20.05;;;;;;;-0.42;100.00;101826.22;5217201;28;20506;-75
2022/03/03 02:55:37;;;;;;;48.97;20.50;;;;;;;-0.41;100.00;101815.59;5225159;28;20120;-75
2022/03/03 02:58:10;;;;;;;54.65;23.02;;;;;;;-0.41;100.00;101809.47;5211405;28;20021;-75
2022/03/03 03:00:43;;;;;;;46.97;20.88;;;;;;;-0.39;100.00;101818.19;5212291;28;20535;-75
2022/03/03 03:03:15;;;;;;;46.53;19.63;;;;;;;-0.37;100.00;101818.97;5222928;28;20017;-75
2022/03/03 03:05:46;;;;;;;51.65;21.23;;;;;;;-0.37;100.00;101817.19;5206460;28;20485;-75
2022/03/03 03:08:17;;;;;;;46.28;18.88;;;;;;;-0.38;100.00;101815.47;5226295;28;20562;-75
2022/03/03 03:10:48;;;;;;;57.47;21.27;;;;;;;-0.40;100.00;101808.53;5228864;28;20033;-75
2022/03/03 03:13:23;;;;;;;46.40;21.00;;;;;;;-0.45;100.00;101814.06;5228880;28;20020;-75
2022/03/03 03:15:54;;;;;;;52.88;20.27;;;;;;;-0.49;100.00;101811.63;5228160;28;20276;-75
2022/03/03 03:18:25;;;;;;;48.20;20.48;;;;;;;-0.53;100.00;101814.41;5201975;28;20021;-75
2022/03/03 03:20:55;;;;;;;54.90;21.17;;;;;;;-0.56;100.00;101809.25;5223451;28;20029;-75
2022/03/03 03:23:26;;;;;;;47.88;20.38;;;;;;;-0.58;100.00;101805.00;5228139;28;20462;-75
2022/03/03 03:25:56;;;;;;;44.42;19.63;;;;;;;-0.63;100.00;101799.94;5227682;28;20033;-75
2022/03/03 03:28:27;;;;;;;46.78;20.08;;;;;;;-0.66;100.00;101797.44;5228059;28;20485;-75
2022/03/03 03:30:57;;;;;;;41.50;19.70;;;;;;;-0.67;100.00;101800.16;5229192;28;20369;-76
2022/03/03 03:33:28;;;;;;;48.92;20.13;;;;;;;-0.69;100.00;101792.34;5230002;28;20028;-75
2022/03/03 03:35:59;;;;;;;49.40;19.88;;;;;;;-0.72;100.00;101796.88;5229105;28;20301;-75
2022/03/03 03:38:29;;;;;;;48.85;20.25;;;;;;;-0.75;100.00;101791.75;5226662;28;20032;-75
2022/03/03 03:41:00;;;;;;;51.22;20.83;;;;;;;-0.76;100.00;101797.94;5227833;28;20195;-75
2022/03/03 03:43:31;;;;;;;46.45;20.00;;;;;;;-0.80;100.00;101795.47;5228081;28;20390;-75
2022/03/03 03:46:03;;;;;;;51.50;20.17;;;;;;;-0.80;100.00;101800.72;5227760;28;20039;-75
2022/03/03 03:48:33;;;;;;;54.13;19.95;;;;;;;-0.83;100.00;101802.66;5227773;28;20033;-74
2022/03/03 03:51:04;;;;;;;49.42;18.80;;;;;;;-0.89;100.00;101798.50;5227739;28;20109;-74
2022/03/03 03:53:34;;;;;;;46.90;19.27;;;;;;;-0.94;100.00;101792.59;5227321;28;20025;-75
2022/03/03 03:56:05;;;;;;;44.70;20.10;;;;;;;-0.97;100.00;101786.59;5227601;28;20025;-75
2022/03/03 03:58:35;;;;;;;48.03;19.67;;;;;;;-0.98;100.00;101785.75;5227743;28;20104;-75
2022/03/03 04:01:06;;;;;;;49.78;19.63;;;;;;;-1.00;100.00;101784.97;5228118;28;20059;-75
2022/03/03 04:03:37;;;;;;;45.85;20.33;;;;;;;-1.01;100.00;101796.41;5227778;28;20024;-74
2022/03/03 04:06:07;;;;;;;43.55;19.67;;;;;;;-1.03;100.00;101790.38;5222998;28;20021;-75
2022/03/03 04:08:37;;;;;;;48.63;20.00;;;;;;;-1.05;100.00;101789.59;5227510;28;20021;-75
2022/03/03 04:11:08;;;;;;;46.58;19.25;;;;;;;-1.04;100.00;101788.66;5226817;28;20056;-74
2022/03/03 04:13:39;;;;;;;50.25;20.23;;;;;;;-1.02;100.00;101799.13;5226980;28;20079;-74
2022/03/03 04:16:09;;;;;;;48.08;18.50;;;;;;;-1.01;100.00;101792.94;5226883;28;20540;-74
2022/03/03 04:18:40;;;;;;;46.13;19.13;;;;;;;-1.01;100.00;101800.81;5198470;28;20593;-74
2022/03/03 04:21:11;;;;;;;49.28;18.83;;;;;;;-1.01;100.00;101800.81;5224575;28;20128;-74
2022/03/03 04:23:41;;;;;;;49.10;19.85;;;;;;;-1.02;100.00;101794.72;5210533;28;20029;-75
2022/03/03 04:26:12;;;;;;;46.60;19.75;;;;;;;-1.02;100.00;101792.06;5226530;28;20027;-74
2022/03/03 04:28:42;;;;;;;45.13;18.92;;;;;;;-1.02;100.00;101799.13;5225640;28;20025;-74
2022/03/03 04:31:13;;;;;;;46.95;19.45;;;;;;;-1.03;100.00;101800.91;5225760;28;20021;-75
2022/03/03 04:33:43;;;;;;;51.88;19.90;;;;;;;-1.04;100.00;101796.56;5226900;28;20052;-74
2022/03/03 04:36:14;;;;;;;50.40;19.38;;;;;;;-1.04;100.00;101793.94;5226694;28;20159;-74
2022/03/03 04:38:47;;;;;;;47.70;20.15;;;;;;;-1.03;100.00;101794.78;5226529;28;20025;-75
2022/03/03 04:41:18;;;;;;;46.03;18.40;;;;;;;-1.00;100.00;101798.16;5227278;28;20016;-74
2022/03/03 04:43:49;;;;;;;47.25;18.35;;;;;;;-1.05;100.00;101782.56;5226519;28;20025;-74
2022/03/03 04:46:19;;;;;;;45.65;21.02;;;;;;;-1.07;100.00;101786.16;5226208;28;20029;-75
2022/03/03 04:48:50;;;;;;;43.40;17.75;;;;;;;-1.09;100.00;101780.13;5226447;28;20056;-75
2022/03/03 04:51:20;;;;;;;46.63;18.77;;;;;;;-1.12;100.00;101778.47;5195629;28;20037;-75
2022/03/03 04:53:51;;;;;;;46.80;18.13;;;;;;;-1.08;100.00;101784.47;5225812;28;20025;-75
2022/03/03 04:56:22;;;;;;;44.25;17.92;;;;;;;-1.07;100.00;101776.47;5226303;28;20086;-74
2022/03/03 04:58:52;;;;;;;53.90;19.40;;;;;;;-1.08;100.00;101774.78;5226176;28;20017;-75
2022/03/03 05:01:23;;;;;;;48.17;19.02;;;;;;;-1.09;100.00;101774.84;5224847;28;20489;-75
2022/03/03 05:03:53;;;;;;;52.38;19.15;;;;;;;-1.12;100.00;101767.06;5226226;28;20024;-75
2022/03/03 05:06:24;;;;;;;41.90;19.13;;;;;;;-1.14;100.00;101776.84;5225272;28;20029;-75
2022/03/03 05:08:54;;;;;;;49.67;19.40;;;;;;;-1.18;100.00;101778.75;5226043;28;20458;-75
2022/03/03 05:11:25;;;;;;;46.30;18.55;;;;;;;-1.22;100.00;101777.16;5225960;28;20306;-75
2022/03/03 05:13:55;;;;;;;50.40;19.00;;;;;;;-1.23;100.00;101780.72;5226173;28;20473;-75
2022/03/03 05:16:26;;;;;;;45.80;19.48;;;;;;;-1.22;100.00;101784.22;5225820;28;20087;-75
2022/03/03 05:18:57;;;;;;;49.92;19.15;;;;;;;-1.16;100.00;101789.19;5194674;28;20031;-75
2022/03/03 05:21:27;;;;;;;50.00;20.27;;;;;;;-1.14;100.00;101782.97;5225332;28;20102;-75
2022/03/03 05:23:59;;;;;;;50.20;19.30;;;;;;;-1.20;100.00;101783.22;5226261;28;20078;-75
2022/03/03 05:26:30;;;;;;;50.53;20.00;;;;;;;-1.18;100.00;101777.88;5200046;28;20029;-75
2022/03/03 05:29:01;;;;;;;51.53;19.90;;;;;;;-1.25;100.00;101779.94;5221689;28;20112;-75
2022/03/03 05:31:32;;;;;;;47.88;19.88;;;;;;;-1.25;100.00;101776.47;5226391;28;20580;-75
2022/03/03 05:34:03;;;;;;;48.45;18.08;;;;;;;-1.29;100.00;101769.63;5226553;28;20389;-74
2022/03/03 05:36:38;;;;;;;44.08;18.30;;;;;;;-1.33;100.00;101780.28;5226339;28;20036;-74
2022/03/03 05:39:08;;;;;;;;;;;;;;;-1.38;100.00;101770.88;5227078;28;20059;-75
2022/03/03 05:41:39;;;;;;;46.30;18.45;;;;;;;-1.41;100.00;101779.75;5226500;28;19909;-75
2022/03/03 05:44:12;;;;;;;46.70;18.80;;;;;;;-1.35;100.00;101776.00;5225980;28;20032;-75
2022/03/03 05:46:43;;;;;;;44.97;18.70;;;;;;;-1.38;100.00;101778.78;5219041;28;20024;-75
2022/03/03 05:49:15;;;;;;;48.28;19.40;;;;;;;-1.38;100.00;101789.28;5225565;28;20029;-75
2022/03/03 05:51:46;;;;;;;52.13;19.58;;;;;;;-1.42;100.00;101793.84;5226117;28;20020;-74
2022/03/03 05:54:16;;;;;;;52.40;20.17;;;;;;;-1.46;100.00;101788.75;5225000;28;20028;-74
2022/03/03 05:56:48;;;;;;;47.88;18.75;;;;;;;-1.48;100.00;101788.84;5224085;28;20496;-75
2022/03/03 05:59:22;;;;;;;49.42;17.85;;;;;;;-1.55;100.00;101787.41;5224343;28;20031;-75
2022/03/03 06:01:53;;;;;;;53.40;19.58;;;;;;;-1.63;100.00;101779.81;5225684;28;20555;-75
2022/03/03 06:04:27;;;;;;;51.78;19.38;;;;;;;-1.68;100.00;101770.41;5225760;28;20025;-74
2022/03/03 06:07:18;;;;;;;52.15;19.65;;;;;;;-1.72;100.00;101767.06;5225360;28;20056;-76
2022/03/03 06:09:52;;;;;;;55.60;20.48;;;;;;;-1.72;100.00;101772.31;5226222;28;20055;-75
2022/03/03 06:12:33;;;;;;;53.70;19.50;;;;;;;-1.74;100.00;101768.91;5215788;28;20028;-76
2022/03/03 06:15:05;;;;;;;61.38;22.35;;;;;;;-1.76;100.00;101760.19;5225863;28;20025;-76
2022/03/03 06:17:36;;;;;;;48.33;19.55;;;;;;;-1.76;100.00;101775.13;5225251;28;20532;-75
2022/03/03 06:20:07;;;;;;;51.63;20.30;;;;;;;-1.79;100.00;101768.25;5214178;28;20032;-75
2022/03/03 06:22:38;;;;;;;54.40;20.65;;;;;;;-1.81;100.00;101767.44;5223921;28;20024;-76
2022/03/03 06:25:08;;;;;;;65.75;21.73;;;;;;;-1.82;100.00;101763.09;5226948;28;20025;-77
2022/03/03 06:27:39;;;;;;;49.28;19.85;;;;;;;-1.82;100.00;101763.94;5213937;28;20412;-77
2022/03/03 06:30:10;;;;;;;56.10;20.33;;;;;;;-1.83;100.00;101759.63;5227469;28;20025;-77
2022/03/03 06:32:40;;;;;;;61.00;19.88;;;;;;;-1.86;100.00;101764.13;5225632;28;20485;-77
2022/03/03 06:35:12;;;;;;;52.13;20.23;;;;;;;-1.87;100.00;101765.91;5225461;28;20031;-74
2022/03/03 06:37:42;;;;;;;47.88;19.67;;;;;;;-1.85;100.00;101766.72;5212580;28;20032;-75
2022/03/03 06:40:13;;;;;;;57.08;21.30;;;;;;;-1.81;100.00;101767.44;5225740;28;20428;-76
2022/03/03 06:42:44;;;;;;;55.05;19.77;;;;;;;-1.76;100.00;101768.09;5211300;28;20129;-76
2022/03/03 06:45:17;;;;;;;62.00;21.38;;;;;;;-1.62;100.00;101767.50;5225404;28;20103;-75
2022/03/03 06:47:49;;;;;;;67.93;22.13;;;;;;;-1.44;100.00;101771.16;5223907;28;20060;-74
2022/03/03 06:50:20;;;;;;;49.47;19.55;;;;;;;-1.28;100.00;101772.19;5223455;28;20027;-75
2022/03/03 06:52:51;;;;;;;47.38;19.33;;;;;;;-1.01;100.00;101772.72;5225122;28;20433;-75
2022/03/03 06:55:24;;;;;;;54.47;20.63;;;;;;;-0.81;100.00;101775.28;5224879;28;20036;-75
2022/03/03 06:57:57;;;;;;;46.90;18.90;;;;;;;-0.59;100.00;101771.69;5224420;28;20025;-75
2022/03/03 07:00:32;;;;;;;63.72;21.48;;;;;;;-0.37;100.00;101782.91;5225394;28;20505;-75
2022/03/03 07:03:04;;;;;;;59.33;20.75;;;;;;;-0.30;100.00;101781.69;5212240;28;20156;-75
2022/03/03 07:05:35;;;;;;;57.15;20.02;;;;;;;-0.19;100.00;101785.59;5224777;28;20021;-75
2022/03/03 07:08:05;;;;;;;54.47;21.25;;;;;;;-0.17;100.00;101789.84;5225520;28;20094;-75
2022/03/03 07:10:37;;;;;;;65.57;20.17;;;;;;;0.03;100.00;101791.53;5206786;28;20031;-75
2022/03/03 07:13:07;;;;;;;56.80;21.02;;;;;;;0.38;100.00;101786.25;5223423;28;20017;-75
2022/03/03 07:15:46;;;;;;;50.60;20.17;;;;;;;0.91;100.00;101791.41;5223150;28;20036;-75
2022/03/03 07:18:20;;;;;;;54.97;20.00;;;;;;;1.46;100.00;101788.44;5216467;28;20423;-75
2022/03/03 07:21:13;;;;;;;50.25;19.52;;;;;;;2.16;100.00;101790.66;5212562;28;20028;-75
2022/03/03 07:23:53;;;;;;;47.03;19.70;;;;;;;2.84;100.00;101789.22;5223428;28;20021;-76
2022/03/03 07:26:24;;;;;;;55.40;21.15;;;;;;;3.49;100.00;101775.44;5223903;28;20111;-75
2022/03/03 07:28:58;;;;;;;48.55;22.10;;;;;;;4.05;100.00;101786.84;5206563;28;20108;-76
2022/03/03 07:31:31;;;;;;;44.50;20.25;;;;;;;4.41;100.00;101778.19;5211756;28;20028;-76
2022/03/03 07:34:06;;;;;;;42.78;19.50;;;;;;;4.57;100.00;101782.50;5222660;28;20082;-76
2022/03/03 07:36:40;;;;;;;47.13;20.08;;;;;;;4.59;100.00;101780.59;5214968;28;20036;-80
2022/03/03 07:39:14;;;;;;;41.35;18.50;;;;;;;4.64;100.00;101781.97;5228345;28;20580;-81
2022/03/03 07:41:45;;;;;;;42.40;19.63;;;;;;;4.76;100.00;101779.41;5234808;28;20397;-82
2022/03/03 07:44:16;;;;;;;40.67;17.83;;;;;;;4.99;100.00;101783.16;5231226;28;20021;-82
2022/03/03 07:46:46;;;;;;;39.45;17.70;;;;;;;5.25;100.00;101779.50;5214374;28;20032;-81
2022/03/03 07:49:21;;;;;;;32.55;18.45;;;;;;;5.40;100.00;101778.41;5217679;28;20028;-81
2022/03/03 07:51:52;;;;;;;35.87;17.47;;;;;;;5.60;100.00;101778.78;5227698;28;20028;-80
2022/03/03 07:54:22;;;;;;;40.80;18.55;;;;;;;5.93;100.00;101780.81;5204342;28;20021;-80
2022/03/03 07:56:56;;;;;;;40.47;18.02;;;;;;;6.12;100.00;101781.13;5228738;28;20021;-80
2022/03/03 07:59:32;;;;;;;38.13;19.13;;;;;;;6.31;100.00;101771.75;5225226;28;20025;-82
2022/03/03 08:02:05;;;;;;;41.28;18.98;;;;;;;6.62;100.00;101772.94;5228711;28;20024;-80
2022/03/03 08:04:37;;;;;;;38.72;18.75;;;;;;;6.89;100.00;101778.81;5226451;28;20120;-81
2022/03/03 08:07:09;;;;;;;40.35;19.52;;;;;;;6.77;100.00;101776.22;5228808;28;20055;-79
2022/03/03 08:09:40;;;;;;;38.80;19.05;;;;;;;6.69;100.00;101784.84;5215635;28;20065;-81
2022/03/03 08:12:14;;;;;;;36.15;19.00;;;;;;;7.21;100.00;101781.59;5194630;28;20401;-80
2022/03/03 08:14:46;;;;;;;37.17;18.85;;;;;;;7.14;100.00;101772.41;5227094;28;20024;-81
2022/03/03 08:17:18;;;;;;;33.47;17.25;;;;;;;7.26;100.00;101774.06;5213875;28;20025;-80
2022/03/03 08:19:51;;;;;;;30.95;17.67;;;;;;;7.52;100.00;101774.66;5209978;28;20029;-79
2022/03/03 08:22:24;;;;;;;38.80;19.55;;;;;;;7.55;100.00;101776.25;5228075;28;20325;-81
2022/03/03 08:24:57;;;;;;;31.77;16.58;;;;;;;7.71;100.00;101773.16;5218761;28;20025;-80
2022/03/03 08:27:28;;;;;;;31.33;17.27;;;;;;;7.85;100.00;101775.56;5219125;28;20071;-80
2022/03/03 08:30:00;;;;;;;34.22;18.30;;;;;;;7.91;100.00;101772.38;5221738;28;20029;-79
2022/03/03 08:32:36;;;;;;;40.25;17.70;;;;;;;8.02;100.00;101780.34;5226163;28;20135;-79
2022/03/03 08:35:19;;;;;;;35.35;18.92;;;;;;;8.37;100.00;101779.28;5226360;28;20055;-80
2022/03/03 08:37:58;;;;;;;32.35;17.92;;;;;;;8.59;100.00;101777.47;5227697;28;20032;-80
2022/03/03 08:40:30;;;;;;;35.00;18.20;;;;;;;8.79;97.72;101785.50;5227423;28;20440;-81
2022/03/03 08:43:03;;;;;;;33.20;17.60;;;;;;;8.89;90.09;101780.19;5225980;28;20227;-80
2022/03/03 08:45:34;;;;;;;34.08;17.77;;;;;;;9.07;94.68;101785.75;5216170;28;20143;-81
2022/03/03 08:48:07;;;;;;;33.47;18.25;;;;;;;9.23;92.65;101770.03;5227851;28;20021;-80
2022/03/03 08:50:40;;;;;;;34.95;18.70;;;;;;;9.40;86.30;101773.09;5226978;28;20033;-81
2022/03/03 08:53:11;;;;;;;32.78;18.45;;;;;;;9.57;93.43;101767.91;5227643;28;20075;-78
2022/03/03 08:55:41;;;;;;;31.80;17.83;;;;;;;9.86;82.83;101769.81;5213726;28;20447;-81
2022/03/03 08:58:14;;;;;;;31.88;18.55;;;;;;;9.91;86.19;101772.91;5198058;28;20028;-80
2022/03/03 09:00:45;;;;;;;29.88;17.40;;;;;;;10.09;83.10;101776.59;5208499;28;20029;-81
2022/03/03 09:06:05;;;;;;;32.85;18.42;;;;;;;10.63;83.46;101771.63;5226247;28;20150;-82
2022/03/03 09:08:35;;;;;;;35.95;18.85;;;;;;;10.65;82.83;101771.50;5227431;28;20486;-79
2022/03/03 09:11:06;;;;;;;38.95;17.88;;;;;;;10.72;88.20;101760.03;5227315;28;20052;-80
2022/03/03 09:13:36;;;;;;;30.27;17.40;;;;;;;10.74;81.67;101760.72;5210081;28;20448;-81
2022/03/03 09:16:07;;;;;;;38.00;19.60;;;;;;;10.89;81.77;101761.13;5225964;28;20071;-80
2022/03/03 09:18:37;;;;;;;32.38;18.10;;;;;;;11.14;82.19;101763.16;5231692;28;20055;-78
2022/03/03 09:21:08;;;;;;;37.97;19.77;;;;;;;11.05;76.84;101761.38;5231664;28;20052;-81
2022/03/03 09:23:39;;;;;;;37.10;18.83;;;;;;;11.36;79.59;101756.56;5231695;28;20444;-81
2022/03/03 09:26:10;;;;;;;35.38;18.15;;;;;;;11.50;75.76;101749.84;5229549;28;20017;-80
2022/03/03 09:28:41;;;;;;;34.13;18.30;;;;;;;11.73;77.77;101757.47;5229347;28;20071;-79
2022/03/03 09:31:11;;;;;;;36.30;18.05;;;;;;;11.66;71.52;101758.09;5224739;28;20428;-80
2022/03/03 09:33:43;;;;;;;35.65;18.20;;;;;;;11.65;73.82;101761.78;5212702;28;20025;-79
2022/03/03 09:36:13;;;;;;;40.13;19.13;;;;;;;11.88;74.35;101761.34;5225997;28;20114;-80
2022/03/03 09:38:44;;;;;;;30.85;18.75;;;;;;;11.79;72.72;101756.84;5229201;28;20540;-80
2022/03/03 09:41:15;;;;;;;32.28;18.45;;;;;;;11.29;72.01;101754.59;5228959;28;20048;-81
2022/03/03 09:43:45;;;;;;;35.25;17.95;;;;;;;11.62;78.10;101762.06;5228759;28;20107;-80
2022/03/03 09:46:16;;;;;;;33.63;17.35;;;;;;;11.41;71.13;101761.47;5228798;28;20082;-81
2022/03/03 09:48:46;;;;;;;32.85;16.40;;;;;;;11.53;76.50;101770.19;5230521;28;20044;-82
2022/03/03 09:51:17;;;;;;;48.33;18.35;;;;;;;11.61;70.66;101768.44;5217740;28;20075;-81
2022/03/03 09:53:49;;;;;;;35.70;17.25;;;;;;;11.30;73.09;101769.75;5225690;28;20013;-81
2022/03/03 09:56:20;;;;;;;31.95;17.48;;;;;;;11.36;75.69;101759.25;5218490;28;20025;-80
2022/03/03 09:58:50;;;;;;;31.17;17.50;;;;;;;11.05;73.25;101756.00;5199860;28;20086;-81
2022/03/03 10:01:21;;;;;;;33.50;17.52;;;;;;;11.04;70.30;101759.66;5211902;28;20108;-80
2022/03/03 10:03:51;;;;;;;34.22;16.80;;;;;;;10.99;69.58;101759.25;5230204;28;20243;-80
2022/03/03 10:06:22;;;;;;;31.52;18.42;;;;;;;10.85;70.68;101760.59;5229578;28;20140;-78
2022/03/03 10:08:53;;;;;;;39.40;18.35;;;;;;;11.03;67.46;101763.34;5227090;28;20460;-77
2022/03/03 10:11:23;;;;;;;39.15;20.60;;;;;;;11.14;68.38;101759.59;5227388;28;20025;-77
2022/03/03 10:13:54;;;;;;;33.38;17.27;;;;;;;11.09;65.71;101756.53;5228570;28;20024;-78
2022/03/03 10:16:29;;;;;;;39.97;21.38;;;;;;;11.49;67.63;101753.50;5204942;28;20485;-78
2022/03/03 10:19:03;;;;;;;31.80;17.65;;;;;;;11.50;62.88;101752.53;5216988;28;20028;-77
2022/03/03 10:21:38;;;;;;;36.03;16.77;;;;;;;11.48;67.36;101749.13;5222691;28;20020;-77
2022/03/03 10:24:28;;;;;;;35.20;17.00;;;;;;;11.73;68.31;101752.09;5223733;28;20029;-76
2022/03/03 10:27:01;;;;;;;30.33;16.60;;;;;;;11.27;68.46;101745.84;5193817;28;20021;-77
2022/03/03 10:29:33;;;;;;;33.75;16.98;;;;;;;11.29;68.78;101747.38;5224319;28;20029;-77
2022/03/03 10:32:04;;;;;;;34.78;17.73;;;;;;;11.50;72.39;101738.25;5224101;28;20064;-77
2022/03/03 10:34:37;;;;;;;33.40;16.60;;;;;;;11.59;73.41;101735.47;5222856;28;20064;-77
2022/03/03 10:37:10;;;;;;;31.35;16.92;;;;;;;11.76;74.02;101741.88;5224065;28;20075;-77
2022/03/03 10:39:42;;;;;;;34.00;16.48;;;;;;;11.62;72.97;101745.09;5223332;28;20397;-77
2022/03/03 10:42:16;;;;;;;36.13;17.42;;;;;;;11.36;67.90;101742.28;5215379;28;20021;-77
2022/03/03 10:44:48;;;;;;;42.25;22.60;;;;;;;11.48;67.19;101745.59;5209683;28;20017;-77
2022/03/03 10:47:21;;;;;;;43.85;22.15;;;;;;;11.46;69.35;101739.53;5222235;28;20017;-77
2022/03/03 10:49:53;;;;;;;199.40;108.10;;;;;;;11.47;67.10;101746.59;5223497;28;20021;-77
2022/03/03 10:52:27;;;;;;;104.20;56.75;;;;;;;11.70;69.32;101750.56;5224261;28;20135;-77
2022/03/03 10:55:01;;;;;;;34.40;18.40;;;;;;;11.76;68.03;101746.44;5211347;28;20066;-77
2022/03/03 10:57:56;;;;;;;40.20;16.20;;;;;;;11.82;64.29;101754.75;5224325;28;20485;-78
2022/03/03 11:00:29;;;;;;;34.55;15.88;;;;;;;11.59;64.99;101743.53;5223017;28;20024;-77
2022/03/03 11:03:03;;;;;;;30.50;15.52;;;;;;;11.68;64.09;101747.16;5213174;28;20021;-77
2022/03/03 11:05:33;;;;;;;31.30;15.98;;;;;;;11.79;62.87;101751.47;5217694;28;20025;-77
2022/03/03 11:08:04;;;;;;;35.35;16.13;;;;;;;11.62;70.45;101743.25;5199260;28;20508;-77
2022/03/03 11:10:35;;;;;;;32.72;16.25;;;;;;;11.67;65.15;101743.63;5206800;28;20063;-77
2022/03/03 11:13:06;;;;;;;36.67;15.55;;;;;;;11.85;65.46;101741.00;5222792;28;20143;-77
2022/03/03 11:15:36;;;;;;;31.67;16.13;;;;;;;11.93;65.30;101746.44;5222019;28;20508;-76
2022/03/03 11:18:08;;;;;;;32.97;16.27;;;;;;;12.00;63.30;101751.22;5223356;28;20029;-78
2022/03/03 11:20:38;;;;;;;31.42;16.10;;;;;;;12.10;63.10;101747.47;5222138;28;20032;-77
2022/03/03 11:23:09;;;;;;;32.63;16.85;;;;;;;12.06;62.97;101751.47;5223163;28;20029;-77
2022/03/03 11:25:39;;;;;;;33.85;17.08;;;;;;;12.27;66.41;101753.81;5224017;28;20116;-77
2022/03/03 11:28:14;;;;;;;34.50;15.40;;;;;;;12.27;63.74;101747.59;5224303;28;20035;-77